Government of Jersey

Home Log in

METAR EGJJ 230550Z 10002KT 9999 MIFG SCT033 07/07 Q1030

METAR EGJB 230550Z 12002KT 9999 FEW032 07/07 Q1030

METAR LFRD 230600Z AUTO 06004KT 3000 BR FEW006 BKN044 06/05 Q1030 TEMPO 0800 FG VV///

METAR LFRC 230600Z AUTO 00000KT 9000 FEW015 OVC033 07/06 Q1030 TEMPO 1500 BR BKN004